Time;durP1;ratioP1;P1;durP2;ratioP2;P2;SDS_P1;SDS_P2;PMS_P1;PMS_P2;Temp;Humidity;BMP_temperature;BMP_pressure;BME280_temperature;BME280_humidity;BME280_pressure;Samples;Min_cycle;Max_cycle;Signal;HPM_P1;HPM_P2
2021/10/02 00:41:20;;;;;;;3.00;2.80;;;;;;;;;;5032459;28;20480;-45
2021/10/02 00:46:31;;;;;;;4.30;2.67;;;;;;;;;;5032465;28;20526;-46
2021/10/02 00:48:57;;;;;;;2.90;2.70;;;;;;;;;;5032358;28;20407;-47
2021/10/02 00:51:23;;;;;;;3.10;2.90;;;;;;;;;;5032253;28;20430;-47
2021/10/02 00:53:49;;;;;;;3.03;2.77;;;;;;;;;;5032141;28;20476;-45
2021/10/02 00:56:15;;;;;;;5.23;2.80;;;;;;;;;;5032306;28;20397;-46
2021/10/02 00:58:46;;;;;;;3.00;2.80;;;;;;;;;;5032189;28;20433;-47
2021/10/02 01:01:14;;;;;;;5.13;3.03;;;;;;;;;;5031865;28;20759;-45
2021/10/02 01:03:43;;;;;;;2.80;2.60;;;;;;;;;;5031128;28;20426;-47
2021/10/02 01:06:12;;;;;;;7.60;3.10;;;;;;;;;;5031703;28;20424;-45
2021/10/02 01:08:43;;;;;;;2.87;2.70;;;;;;;;;;5029714;28;20427;-46
2021/10/02 01:11:29;;;;;;;3.20;2.90;;;;;;;;;;5017006;28;20835;-45
2021/10/02 01:14:11;;;;;;;2.90;2.70;;;;;;;;;;5022129;28;21011;-46
2021/10/02 01:16:39;;;;;;;3.13;2.90;;;;;;;;;;5031879;28;20821;-45
2021/10/02 01:19:23;;;;;;;3.33;2.50;;;;;;;;;;5031913;28;20453;-48
2021/10/02 01:21:58;;;;;;;6.10;2.67;;;;;;;;;;5031662;28;20391;-46
2021/10/02 01:24:33;;;;;;;3.80;2.90;;;;;;;;;;5025042;28;20469;-45
2021/10/02 01:27:08;;;;;;;2.70;2.60;;;;;;;;;;5012251;28;20387;-45
2021/10/02 01:29:35;;;;;;;2.60;2.40;;;;;;;;;;5012160;28;20489;-47
2021/10/02 01:32:09;;;;;;;2.93;2.67;;;;;;;;;;5011909;28;20413;-45
2021/10/02 01:34:58;;;;;;;4.43;2.50;;;;;;;;;;5012126;28;20407;-45
2021/10/02 01:37:39;;;;;;;3.87;2.87;;;;;;;;;;5012343;28;20747;-46
2021/10/02 01:48:22;;;;;;;2.40;2.30;;;;;;;;;;5031981;28;20408;-45
2021/10/02 01:50:50;;;;;;;3.03;2.70;;;;;;;;;;5031720;28;20405;-45
2021/10/02 01:53:17;;;;;;;2.40;2.20;;;;;;;;;;5031379;28;20424;-46
2021/10/02 01:55:44;;;;;;;2.73;2.57;;;;;;;;;;5031675;28;20403;-46
2021/10/02 01:58:13;;;;;;;3.70;3.20;;;;;;;;;;5031599;28;20411;-46
2021/10/02 02:00:41;;;;;;;3.17;2.97;;;;;;;;;;5031524;28;20474;-47
2021/10/02 02:03:07;;;;;;;3.10;2.90;;;;;;;;;;5031271;28;20418;-46
2021/10/02 02:05:35;;;;;;;3.00;2.80;;;;;;;;;;5029773;28;20450;-46
2021/10/02 02:08:07;;;;;;;3.93;2.80;;;;;;;;;;5031563;28;20407;-45
2021/10/02 02:10:34;;;;;;;2.90;2.70;;;;;;;;;;5031499;28;20407;-46
2021/10/02 02:13:01;;;;;;;3.03;2.83;;;;;;;;;;5031129;28;20424;-45
2021/10/02 02:15:28;;;;;;;3.40;3.20;;;;;;;;;;5031355;28;20426;-45
2021/10/02 02:17:57;;;;;;;2.60;2.40;;;;;;;;;;5031451;28;20785;-45
2021/10/02 02:20:27;;;;;;;2.80;2.60;;;;;;;;;;5032446;28;20549;-46
2021/10/02 02:22:54;;;;;;;2.90;2.70;;;;;;;;;;5034853;28;20427;-44
2021/10/02 02:25:20;;;;;;;3.03;2.83;;;;;;;;;;5035147;28;20404;-46
2021/10/02 02:27:46;;;;;;;2.97;2.77;;;;;;;;;;5035087;28;20433;-45
2021/10/02 02:30:12;;;;;;;2.93;2.83;;;;;;;;;;5033162;28;20428;-45
2021/10/02 02:32:39;;;;;;;2.90;2.70;;;;;;;;;;5034636;28;20429;-45
2021/10/02 02:35:05;;;;;;;3.30;3.10;;;;;;;;;;5034975;28;20499;-46
2021/10/02 02:37:31;;;;;;;6.50;4.70;;;;;;;;;;5034936;28;20405;-46
2021/10/02 02:39:56;;;;;;;3.90;3.63;;;;;;;;;;5035053;28;20552;-45
2021/10/02 02:42:22;;;;;;;5.07;3.77;;;;;;;;;;5034454;28;20457;-45
2021/10/02 02:44:48;;;;;;;5.77;4.07;;;;;;;;;;5034756;28;20404;-47
2021/10/02 02:47:17;;;;;;;3.73;3.43;;;;;;;;;;5034721;28;20489;-48
2021/10/02 02:49:47;;;;;;;4.17;3.77;;;;;;;;;;5034835;28;20439;-45
2021/10/02 02:52:30;;;;;;;4.60;4.30;;;;;;;;;;5034330;28;20485;-45
2021/10/02 02:54:56;;;;;;;4.50;4.07;;;;;;;;;;5034665;28;20401;-45
2021/10/02 02:57:26;;;;;;;7.63;4.77;;;;;;;;;;5034722;28;20433;-45
2021/10/02 02:59:56;;;;;;;4.50;4.20;;;;;;;;;;5034484;28;20451;-45
2021/10/02 03:02:23;;;;;;;4.60;4.30;;;;;;;;;;5016655;28;20489;-46
2021/10/02 03:04:49;;;;;;;6.30;5.37;;;;;;;;;;5014675;28;20420;-45
2021/10/02 03:07:17;;;;;;;6.40;5.87;;;;;;;;;;5014658;28;20396;-46
2021/10/02 03:09:45;;;;;;;6.17;5.60;;;;;;;;;;5014629;28;20487;-45
2021/10/02 03:12:11;;;;;;;6.03;5.07;;;;;;;;;;5014261;28;20877;-46
2021/10/02 03:14:38;;;;;;;5.97;5.50;;;;;;;;;;5014157;28;20474;-45
2021/10/02 03:17:05;;;;;;;5.90;5.40;;;;;;;;;;5014362;28;20412;-45
2021/10/02 03:19:36;;;;;;;6.33;5.93;;;;;;;;;;5014584;28;20485;-45
2021/10/02 03:22:06;;;;;;;6.90;6.27;;;;;;;;;;5014012;28;20403;-45
2021/10/02 03:24:32;;;;;;;5.67;5.27;;;;;;;;;;5014216;28;20416;-45
2021/10/02 03:27:02;;;;;;;6.50;6.00;;;;;;;;;;5014222;28;20931;-46
2021/10/02 03:29:28;;;;;;;7.07;6.47;;;;;;;;;;5014017;28;20911;-46
2021/10/02 03:31:54;;;;;;;7.57;6.93;;;;;;;;;;5013242;28;20414;-46
2021/10/02 03:34:20;;;;;;;7.30;6.70;;;;;;;;;;5013935;28;20462;-46
2021/10/02 03:36:46;;;;;;;8.23;7.43;;;;;;;;;;5014042;28;20418;-45
2021/10/02 03:39:13;;;;;;;7.77;7.17;;;;;;;;;;5013900;28;20447;-46
2021/10/02 03:41:39;;;;;;;7.63;6.93;;;;;;;;;;5013751;28;20400;-47
2021/10/02 03:44:05;;;;;;;8.23;7.53;;;;;;;;;;5013557;28;20439;-45
2021/10/02 03:46:31;;;;;;;8.43;7.60;;;;;;;;;;5013716;28;20400;-45
2021/10/02 03:48:57;;;;;;;7.37;6.73;;;;;;;;;;5013814;28;20405;-46
2021/10/02 03:51:23;;;;;;;10.13;9.17;;;;;;;;;;5013681;28;20846;-48
2021/10/02 03:53:49;;;;;;;8.80;8.00;;;;;;;;;;5025771;28;20456;-45
2021/10/02 03:56:14;;;;;;;7.67;6.97;;;;;;;;;;5033443;28;20435;-45
2021/10/02 03:58:40;;;;;;;8.47;7.67;;;;;;;;;;5033287;28;20437;-46
2021/10/02 04:01:06;;;;;;;8.40;7.60;;;;;;;;;;5033250;28;20458;-46
2021/10/02 04:03:32;;;;;;;7.93;7.03;;;;;;;;;;5032152;28;20451;-45
2021/10/02 04:05:58;;;;;;;7.53;6.83;;;;;;;;;;5032740;28;20408;-46
2021/10/02 04:08:24;;;;;;;6.60;6.00;;;;;;;;;;5033279;28;20434;-45
2021/10/02 04:10:50;;;;;;;8.03;7.23;;;;;;;;;;5033099;28;20428;-45
2021/10/02 04:13:16;;;;;;;10.63;5.90;;;;;;;;;;5032694;28;20789;-47
2021/10/02 04:15:42;;;;;;;6.13;5.53;;;;;;;;;;5032980;28;20488;-48
2021/10/02 04:18:08;;;;;;;6.27;5.63;;;;;;;;;;5032994;28;20401;-45
2021/10/02 04:20:34;;;;;;;5.70;5.30;;;;;;;;;;5032979;28;20933;-45
2021/10/02 04:23:00;;;;;;;5.63;5.23;;;;;;;;;;5032578;28;20418;-45
2021/10/02 04:25:26;;;;;;;6.30;5.70;;;;;;;;;;5032852;28;20759;-46
2021/10/02 04:27:52;;;;;;;5.70;5.30;;;;;;;;;;5032756;28;20400;-45
2021/10/02 04:30:18;;;;;;;6.87;6.30;;;;;;;;;;5033015;28;20816;-45
2021/10/02 04:32:44;;;;;;;6.37;5.30;;;;;;;;;;5032333;28;20498;-45
2021/10/02 04:35:10;;;;;;;5.83;5.33;;;;;;;;;;5032811;28;20878;-46
2021/10/02 04:37:36;;;;;;;6.33;5.73;;;;;;;;;;5032736;28;20408;-45
2021/10/02 04:40:02;;;;;;;9.20;6.10;;;;;;;;;;5032539;28;20455;-46
2021/10/02 04:42:28;;;;;;;6.87;6.27;;;;;;;;;;5031627;28;20485;-46
2021/10/02 04:44:54;;;;;;;5.73;5.30;;;;;;;;;;5032358;28;20499;-45
2021/10/02 04:47:20;;;;;;;6.60;5.90;;;;;;;;;;5032546;28;20417;-47
2021/10/02 04:49:47;;;;;;;9.77;5.77;;;;;;;;;;5032430;28;20413;-47
2021/10/02 04:52:12;;;;;;;5.90;5.40;;;;;;;;;;5032130;28;20414;-47
2021/10/02 04:54:38;;;;;;;6.90;6.20;;;;;;;;;;5032314;28;20434;-47
2021/10/02 04:57:04;;;;;;;7.23;5.50;;;;;;;;;;5032243;28;20403;-46
2021/10/02 04:59:30;;;;;;;5.90;5.20;;;;;;;;;;5032501;28;20470;-45
2021/10/02 05:01:56;;;;;;;5.83;4.60;;;;;;;;;;5031987;28;20918;-45
2021/10/02 05:04:22;;;;;;;5.30;4.90;;;;;;;;;;5032153;28;20942;-44
2021/10/02 05:06:48;;;;;;;6.10;5.53;;;;;;;;;;5032158;28;20410;-46
2021/10/02 05:09:14;;;;;;;5.57;5.17;;;;;;;;;;5032164;28;20466;-45
2021/10/02 05:11:40;;;;;;;5.43;5.00;;;;;;;;;;5031780;28;20438;-46
2021/10/02 05:14:06;;;;;;;6.53;5.40;;;;;;;;;;5030409;28;20458;-47
2021/10/02 05:16:32;;;;;;;7.00;4.93;;;;;;;;;;5032036;28;20427;-47
2021/10/02 05:18:58;;;;;;;5.90;5.40;;;;;;;;;;5032008;28;20851;-45
2021/10/02 05:21:24;;;;;;;5.87;5.17;;;;;;;;;;5032038;28;20399;-45
2021/10/02 05:23:50;;;;;;;5.80;5.23;;;;;;;;;;5031779;28;20457;-46
2021/10/02 05:26:16;;;;;;;5.27;4.60;;;;;;;;;;5021296;28;20439;-45
2021/10/02 05:28:42;;;;;;;6.17;5.30;;;;;;;;;;5024774;28;20426;-43
2021/10/02 05:31:08;;;;;;;5.97;5.50;;;;;;;;;;5029939;28;20439;-44
2021/10/02 05:33:34;;;;;;;6.60;6.00;;;;;;;;;;5031553;28;20444;-44
2021/10/02 05:36:00;;;;;;;4.97;4.63;;;;;;;;;;5030971;28;20935;-44
2021/10/02 05:38:26;;;;;;;6.07;5.67;;;;;;;;;;5031771;28;20404;-45
2021/10/02 05:40:52;;;;;;;7.27;6.57;;;;;;;;;;5031533;28;20459;-44
2021/10/02 05:43:18;;;;;;;8.33;6.10;;;;;;;;;;5029558;28;20450;-46
2021/10/02 05:45:44;;;;;;;5.47;5.07;;;;;;;;;;5030891;28;20979;-46
2021/10/02 05:48:10;;;;;;;6.80;5.50;;;;;;;;;;5031726;28;20434;-47
2021/10/02 05:50:38;;;;;;;5.80;5.40;;;;;;;;;;5031761;28;20497;-44
2021/10/02 05:53:04;;;;;;;5.77;5.37;;;;;;;;;;5030279;28;20447;-47
2021/10/02 05:55:30;;;;;;;6.27;5.23;;;;;;;;;;5034757;28;20961;-44
2021/10/02 05:57:56;;;;;;;5.27;4.90;;;;;;;;;;5035658;28;20851;-44
2021/10/02 06:00:22;;;;;;;5.13;4.73;;;;;;;;;;5035559;28;20864;-44
2021/10/02 06:02:48;;;;;;;6.27;5.67;;;;;;;;;;5035197;28;20397;-44
2021/10/02 06:05:14;;;;;;;6.30;5.80;;;;;;;;;;5035533;28;20398;-44
2021/10/02 06:07:40;;;;;;;5.67;4.90;;;;;;;;;;5034062;28;20513;-44
2021/10/02 06:10:06;;;;;;;5.90;5.33;;;;;;;;;;5034964;28;20413;-46
2021/10/02 06:12:34;;;;;;;6.20;5.70;;;;;;;;;;5034477;28;20412;-46
2021/10/02 06:15:00;;;;;;;5.27;4.80;;;;;;;;;;5034703;28;20427;-44
2021/10/02 06:17:26;;;;;;;6.33;5.73;;;;;;;;;;5034849;28;20403;-44
2021/10/02 06:19:51;;;;;;;6.10;5.50;;;;;;;;;;5034512;28;20454;-44
2021/10/02 06:22:17;;;;;;;5.23;4.63;;;;;;;;;;5034465;28;20518;-44
2021/10/02 06:24:43;;;;;;;4.93;3.80;;;;;;;;;;5033141;28;20429;-44
2021/10/02 06:27:09;;;;;;;4.17;3.87;;;;;;;;;;5034523;28;20922;-44
2021/10/02 06:29:36;;;;;;;4.30;4.10;;;;;;;;;;5034327;28;20400;-50
2021/10/02 06:32:02;;;;;;;6.50;4.43;;;;;;;;;;5034304;28;20414;-44
2021/10/02 06:34:28;;;;;;;6.03;4.70;;;;;;;;;;5034449;28;20422;-44
2021/10/02 06:36:54;;;;;;;4.67;4.20;;;;;;;;;;5034270;28;20640;-44
2021/10/02 06:39:20;;;;;;;4.77;4.30;;;;;;;;;;5034238;28;20459;-45
2021/10/02 06:41:45;;;;;;;4.03;3.80;;;;;;;;;;5032969;28;20433;-47
2021/10/02 06:44:11;;;;;;;4.10;3.80;;;;;;;;;;5034179;28;20435;-44
2021/10/02 06:46:38;;;;;;;4.80;4.37;;;;;;;;;;5019224;28;20462;-44
2021/10/02 06:49:04;;;;;;;4.30;3.90;;;;;;;;;;5014647;28;21109;-43
2021/10/02 06:51:30;;;;;;;3.80;3.57;;;;;;;;;;5014854;28;20402;-44
2021/10/02 06:53:56;;;;;;;4.40;4.00;;;;;;;;;;5014489;28;20428;-44
2021/10/02 06:56:22;;;;;;;4.57;4.13;;;;;;;;;;5014793;28;20397;-45
2021/10/02 06:58:48;;;;;;;3.93;3.63;;;;;;;;;;5014807;28;20453;-43
2021/10/02 07:01:14;;;;;;;3.97;3.57;;;;;;;;;;5014593;28;20460;-45
2021/10/02 07:03:40;;;;;;;3.50;3.20;;;;;;;;;;5014498;28;20405;-46
2021/10/02 07:06:06;;;;;;;3.57;3.27;;;;;;;;;;5013759;28;20404;-44
2021/10/02 07:08:32;;;;;;;2.77;2.57;;;;;;;;;;5014482;28;20898;-47
2021/10/02 07:10:57;;;;;;;3.10;2.90;;;;;;;;;;5021340;28;20445;-47
2021/10/02 07:13:23;;;;;;;3.03;2.77;;;;;;;;;;5034062;28;20428;-44
2021/10/02 07:15:49;;;;;;;2.90;2.70;;;;;;;;;;5034151;28;20424;-44
2021/10/02 07:18:17;;;;;;;2.37;2.27;;;;;;;;;;5034267;28;20492;-44
2021/10/02 07:20:43;;;;;;;3.07;2.63;;;;;;;;;;5034100;28;20453;-44
2021/10/02 07:23:09;;;;;;;3.33;2.93;;;;;;;;;;5033877;28;20770;-44
2021/10/02 07:25:35;;;;;;;2.30;2.20;;;;;;;;;;5034095;28;20402;-46
2021/10/02 07:28:01;;;;;;;3.10;2.80;;;;;;;;;;5034158;28;20404;-47
2021/10/02 07:30:27;;;;;;;2.60;2.40;;;;;;;;;;5034044;28;20412;-44
2021/10/02 07:32:53;;;;;;;2.80;2.50;;;;;;;;;;5033628;28;20466;-44
2021/10/02 07:35:20;;;;;;;2.33;2.00;;;;;;;;;;5033873;28;20413;-44
2021/10/02 07:37:46;;;;;;;2.90;2.60;;;;;;;;;;5033936;28;20403;-44
2021/10/02 07:40:14;;;;;;;2.00;1.90;;;;;;;;;;5032710;28;20490;-44
2021/10/02 07:42:44;;;;;;;3.10;2.83;;;;;;;;;;5013840;28;20469;-46
2021/10/02 07:45:11;;;;;;;2.53;2.33;;;;;;;;;;5014000;28;20411;-44
2021/10/02 07:47:42;;;;;;;3.00;2.80;;;;;;;;;;5013958;28;20410;-44
2021/10/02 07:50:09;;;;;;;5.50;2.50;;;;;;;;;;5013848;28;20501;-44
2021/10/02 07:52:36;;;;;;;2.10;2.00;;;;;;;;;;5013467;28;20489;-44
2021/10/02 07:55:04;;;;;;;3.93;2.03;;;;;;;;;;5013818;28;20497;-44
2021/10/02 07:57:30;;;;;;;2.10;2.00;;;;;;;;;;5013954;28;20765;-44
2021/10/02 07:59:57;;;;;;;3.30;2.20;;;;;;;;;;5013577;28;20450;-43
2021/10/02 08:02:23;;;;;;;2.60;2.17;;;;;;;;;;5013265;28;20403;-44
2021/10/02 08:04:50;;;;;;;4.53;2.60;;;;;;;;;;5013443;28;20406;-45
2021/10/02 08:07:16;;;;;;;2.43;2.30;;;;;;;;;;5013479;28;20444;-45
2021/10/02 08:09:42;;;;;;;2.20;2.10;;;;;;;;;;5013404;28;20385;-46
2021/10/02 08:12:09;;;;;;;2.63;2.43;;;;;;;;;;5031083;28;20419;-44
2021/10/02 08:14:35;;;;;;;6.40;2.23;;;;;;;;;;5032873;28;20434;-44
2021/10/02 08:17:01;;;;;;;2.40;2.20;;;;;;;;;;5033101;28;20889;-44
2021/10/02 08:19:30;;;;;;;3.30;3.00;;;;;;;;;;5032973;28;20420;-44
2021/10/02 08:21:57;;;;;;;2.53;2.03;;;;;;;;;;5032854;28;20398;-45
2021/10/02 08:24:25;;;;;;;2.33;2.00;;;;;;;;;;5032900;28;20504;-44
2021/10/02 08:26:52;;;;;;;2.10;2.00;;;;;;;;;;5032890;28;20432;-44
2021/10/02 08:29:19;;;;;;;3.53;1.90;;;;;;;;;;5032825;28;20410;-44
2021/10/02 08:31:45;;;;;;;34.07;21.37;;;;;;;;;;5032605;28;20480;-49
2021/10/02 08:34:11;;;;;;;12.40;7.40;;;;;;;;;;5032712;28;20433;-43
2021/10/02 08:36:37;;;;;;;3.00;2.30;;;;;;;;;;5032877;28;20417;-44
2021/10/02 08:39:03;;;;;;;10.80;6.80;;;;;;;;;;5032568;28;20410;-45
2021/10/02 08:41:29;;;;;;;2.47;2.03;;;;;;;;;;5021289;28;20429;-44
2021/10/02 08:43:56;;;;;;;2.33;2.20;;;;;;;;;;5012660;28;20431;-44
2021/10/02 08:46:22;;;;;;;2.67;2.47;;;;;;;;;;5012855;28;20453;-44
2021/10/02 08:49:04;;;;;;;2.50;2.20;;;;;;;;;;5012861;28;20393;-44
2021/10/02 08:51:30;;;;;;;2.40;2.20;;;;;;;;;;5011654;28;21177;-44
2021/10/02 08:53:57;;;;;;;2.40;2.20;;;;;;;;;;5012433;28;20472;-44
2021/10/02 08:56:24;;;;;;;2.27;2.07;;;;;;;;;;5012757;28;20430;-44
2021/10/02 08:58:51;;;;;;;2.47;2.20;;;;;;;;;;5012587;28;20932;-44
2021/10/02 09:01:17;;;;;;;2.10;2.00;;;;;;;;;;5012433;28;20463;-47
2021/10/02 09:03:43;;;;;;;1.70;1.60;;;;;;;;;;5012946;28;20509;-44
2021/10/02 09:06:09;;;;;;;3.10;2.00;;;;;;;;;;5018626;28;20515;-43
2021/10/02 09:08:35;;;;;;;2.50;2.30;;;;;;;;;;5031456;28;20949;-43
2021/10/02 09:11:01;;;;;;;2.40;2.20;;;;;;;;;;5031343;28;20402;-44
2021/10/02 09:13:27;;;;;;;2.07;1.97;;;;;;;;;;5023768;28;20480;-44
2021/10/02 09:15:53;;;;;;;2.30;1.97;;;;;;;;;;5012346;28;20406;-44
2021/10/02 09:18:19;;;;;;;2.07;1.97;;;;;;;;;;5012287;28;20418;-44
2021/10/02 09:20:59;;;;;;;2.27;2.17;;;;;;;;;;5012345;28;20488;-44
2021/10/02 09:23:25;;;;;;;1.90;1.67;;;;;;;;;;5019688;28;20511;-43
2021/10/02 09:25:51;;;;;;;2.07;1.87;;;;;;;;;;5032063;28;20485;-44
2021/10/02 09:28:17;;;;;;;1.90;1.80;;;;;;;;;;5030675;28;20769;-44
2021/10/02 09:30:45;;;;;;;2.03;1.93;;;;;;;;;;5030901;28;20409;-45
2021/10/02 09:33:20;;;;;;;3.00;2.07;;;;;;;;;;5031353;28;21041;-43
2021/10/02 09:35:47;;;;;;;1.70;1.60;;;;;;;;;;5031905;28;20394;-44
2021/10/02 09:38:14;;;;;;;6.00;1.90;;;;;;;;;;5031676;28;20415;-45
2021/10/02 09:40:46;;;;;;;2.30;2.17;;;;;;;;;;5031711;28;20450;-44
2021/10/02 09:43:12;;;;;;;3.70;2.60;;;;;;;;;;5030425;28;20468;-46
2021/10/02 09:45:40;;;;;;;2.30;2.20;;;;;;;;;;5031710;28;20414;-43
2021/10/02 09:48:07;;;;;;;2.23;2.13;;;;;;;;;;5031599;28;20887;-44
2021/10/02 09:50:34;;;;;;;1.80;1.70;;;;;;;;;;5031646;28;20390;-45
2021/10/02 09:53:07;;;;;;;2.50;2.37;;;;;;;;;;5031195;28;20427;-44
2021/10/02 09:55:35;;;;;;;2.10;1.90;;;;;;;;;;5031672;28;20488;-43
2021/10/02 09:58:05;;;;;;;2.50;2.30;;;;;;;;;;5031627;28;20423;-45
2021/10/02 10:00:42;;;;;;;2.40;2.30;;;;;;;;;;5031560;28;20809;-46
2021/10/02 10:03:09;;;;;;;3.30;2.37;;;;;;;;;;5030213;28;20450;-44
2021/10/02 10:05:38;;;;;;;2.47;2.27;;;;;;;;;;5030427;28;20917;-44
2021/10/02 10:08:06;;;;;;;2.97;2.77;;;;;;;;;;5031513;28;20441;-44
2021/10/02 10:10:33;;;;;;;2.20;2.10;;;;;;;;;;5031565;28;20498;-43
2021/10/02 10:13:04;;;;;;;2.73;2.40;;;;;;;;;;5031249;28;20776;-43
2021/10/02 10:15:40;;;;;;;2.67;2.50;;;;;;;;;;5031436;28;20879;-44
2021/10/02 10:18:07;;;;;;;2.30;2.20;;;;;;;;;;5031198;28;20381;-43
2021/10/02 10:20:44;;;;;;;2.57;2.40;;;;;;;;;;5031372;28;20459;-43
2021/10/02 10:23:11;;;;;;;1.97;1.87;;;;;;;;;;5031250;28;20400;-44
2021/10/02 10:25:50;;;;;;;2.37;2.17;;;;;;;;;;5031468;28;20409;-44
2021/10/02 10:28:17;;;;;;;2.10;2.00;;;;;;;;;;5031326;28;20373;-44
2021/10/02 10:30:46;;;;;;;2.17;2.07;;;;;;;;;;5031375;28;20442;-44
2021/10/02 10:33:14;;;;;;;2.57;2.30;;;;;;;;;;5029422;28;20914;-44
2021/10/02 10:35:41;;;;;;;2.50;2.40;;;;;;;;;;5031288;28;20830;-47
2021/10/02 10:38:08;;;;;;;2.20;2.10;;;;;;;;;;5031354;28;20879;-43
2021/10/02 10:40:34;;;;;;;2.07;1.97;;;;;;;;;;5031298;28;20426;-47
2021/10/02 10:43:01;;;;;;;2.20;2.10;;;;;;;;;;5033711;28;20397;-44
2021/10/02 10:45:27;;;;;;;2.10;2.00;;;;;;;;;;5034175;28;20408;-44
2021/10/02 10:47:56;;;;;;;2.30;2.20;;;;;;;;;;5034826;28;20884;-44
2021/10/02 10:50:22;;;;;;;5.33;2.40;;;;;;;;;;5034710;28;20900;-43
2021/10/02 10:52:48;;;;;;;2.40;2.20;;;;;;;;;;5034416;28;20430;-44
2021/10/02 10:55:18;;;;;;;2.20;2.00;;;;;;;;;;5029907;28;20424;-44
2021/10/02 10:57:46;;;;;;;2.70;2.50;;;;;;;;;;5014843;28;20375;-44
2021/10/02 11:00:20;;;;;;;2.60;2.40;;;;;;;;;;5014693;28;20436;-44
2021/10/02 11:02:54;;;;;;;2.33;2.13;;;;;;;;;;5032778;28;20426;-43
2021/10/02 11:05:35;;;;;;;2.67;2.33;;;;;;;;;;5034452;28;20501;-48
2021/10/02 11:08:07;;;;;;;2.20;2.10;;;;;;;;;;5034368;28;20459;-45
2021/10/02 11:10:42;;;;;;;2.40;2.20;;;;;;;;;;5032694;28;20442;-44
2021/10/02 11:13:12;;;;;;;2.43;2.10;;;;;;;;;;5033992;28;20450;-48
2021/10/02 11:15:38;;;;;;;2.60;2.40;;;;;;;;;;5034215;28;20498;-44
2021/10/02 11:18:04;;;;;;;2.23;2.10;;;;;;;;;;5034363;28;20417;-44
2021/10/02 11:20:30;;;;;;;5.47;2.40;;;;;;;;;;5034071;28;20478;-43
2021/10/02 11:23:14;;;;;;;2.40;2.30;;;;;;;;;;5034064;28;20421;-43
2021/10/02 11:25:43;;;;;;;3.20;2.00;;;;;;;;;;5034174;28;20381;-44
2021/10/02 11:28:22;;;;;;;7.57;2.00;;;;;;;;;;5034587;28;20374;-47
2021/10/02 11:30:49;;;;;;;2.40;2.20;;;;;;;;;;5023154;28;20393;-48
2021/10/02 11:33:33;;;;;;;2.13;1.93;;;;;;;;;;5029712;28;20417;-50
2021/10/02 11:36:00;;;;;;;2.33;2.13;;;;;;;;;;5034070;28;20383;-50
2021/10/02 11:38:36;;;;;;;2.30;2.10;;;;;;;;;;5033861;28;20870;-47
2021/10/02 11:41:02;;;;;;;1.87;1.70;;;;;;;;;;5033663;28;20966;-49
2021/10/02 11:43:29;;;;;;;2.00;1.90;;;;;;;;;;5032348;28;20449;-49
2021/10/02 11:45:56;;;;;;;2.13;2.00;;;;;;;;;;5033724;28;20485;-49
2021/10/02 11:48:33;;;;;;;2.13;1.90;;;;;;;;;;5033485;28;20399;-47
2021/10/02 11:51:16;;;;;;;2.07;1.93;;;;;;;;;;5032783;28;20417;-48
2021/10/02 11:53:42;;;;;;;2.73;1.97;;;;;;;;;;5032954;28;20403;-49
2021/10/02 11:56:19;;;;;;;1.70;1.60;;;;;;;;;;5033609;28;20401;-49
2021/10/02 11:58:46;;;;;;;2.90;1.90;;;;;;;;;;5032723;28;20402;-48
2021/10/02 12:01:16;;;;;;;1.93;1.83;;;;;;;;;;5033403;28;20465;-50
2021/10/02 12:03:42;;;;;;;1.80;1.70;;;;;;;;;;5033128;28;20418;-50
2021/10/02 12:06:08;;;;;;;1.80;1.70;;;;;;;;;;5033390;28;20861;-49
2021/10/02 12:08:34;;;;;;;1.80;1.70;;;;;;;;;;5031674;28;20399;-49
2021/10/02 12:11:00;;;;;;;2.33;1.80;;;;;;;;;;5033195;28;20420;-48
2021/10/02 12:13:28;;;;;;;1.60;1.40;;;;;;;;;;5033116;28;20756;-47
2021/10/02 12:15:57;;;;;;;2.07;1.87;;;;;;;;;;5033149;28;20435;-49
2021/10/02 12:18:23;;;;;;;1.90;1.70;;;;;;;;;;5033105;28;20401;-49
2021/10/02 12:20:49;;;;;;;2.00;1.90;;;;;;;;;;5032984;28;20841;-47
2021/10/02 12:23:16;;;;;;;1.57;1.27;;;;;;;;;;5031507;28;20435;-48
2021/10/02 12:25:42;;;;;;;1.77;1.67;;;;;;;;;;5033061;28;20403;-49
2021/10/02 12:28:08;;;;;;;1.90;1.80;;;;;;;;;;5033112;28;20403;-50
2021/10/02 12:30:34;;;;;;;2.00;1.80;;;;;;;;;;5032990;28;20413;-47
2021/10/02 12:33:01;;;;;;;4.30;1.60;;;;;;;;;;5032423;28;20434;-49
2021/10/02 12:35:27;;;;;;;2.67;1.60;;;;;;;;;;5032682;28;20865;-48
2021/10/02 12:37:56;;;;;;;2.67;1.60;;;;;;;;;;5032764;28;20877;-49
2021/10/02 12:40:23;;;;;;;1.40;1.30;;;;;;;;;;5029865;28;20443;-47
2021/10/02 12:42:51;;;;;;;1.30;1.20;;;;;;;;;;5032087;28;20418;-46
2021/10/02 12:45:23;;;;;;;1.53;1.43;;;;;;;;;;5022240;28;20429;-50
2021/10/02 12:47:58;;;;;;;1.93;1.70;;;;;;;;;;5031577;28;20426;-46
2021/10/02 12:50:26;;;;;;;1.40;1.30;;;;;;;;;;5032543;28;20492;-48
2021/10/02 12:52:52;;;;;;;1.50;1.40;;;;;;;;;;5032149;28;20422;-48
2021/10/02 12:55:19;;;;;;;1.63;1.53;;;;;;;;;;5031575;28;20515;-49
2021/10/02 12:57:45;;;;;;;1.77;1.50;;;;;;;;;;5031813;28;20911;-49
2021/10/02 13:00:12;;;;;;;2.50;1.50;;;;;;;;;;5032223;28;20455;-49
2021/10/02 13:02:43;;;;;;;3.63;2.60;;;;;;;;;;5031701;28;20888;-48
2021/10/02 13:05:09;;;;;;;2.13;1.93;;;;;;;;;;5031561;28;20376;-49
2021/10/02 13:07:37;;;;;;;1.87;1.47;;;;;;;;;;5030383;28;20428;-49
2021/10/02 13:10:14;;;;;;;2.30;1.43;;;;;;;;;;5032225;28;20449;-50
2021/10/02 13:12:41;;;;;;;1.30;1.20;;;;;;;;;;5023408;28;20446;-49
2021/10/02 13:15:09;;;;;;;1.90;1.80;;;;;;;;;;5012049;28;20496;-47
2021/10/02 13:17:35;;;;;;;1.67;1.30;;;;;;;;;;5029777;28;20786;-49
2021/10/02 13:20:08;;;;;;;1.40;1.30;;;;;;;;;;5031012;28;20988;-49
2021/10/02 13:22:37;;;;;;;1.77;1.67;;;;;;;;;;5031752;28;20413;-48
2021/10/02 13:25:08;;;;;;;1.70;1.50;;;;;;;;;;5032088;28;20408;-47
2021/10/02 13:27:35;;;;;;;2.33;1.83;;;;;;;;;;5031934;28;20374;-48
2021/10/02 13:30:06;;;;;;;1.33;1.23;;;;;;;;;;5031954;28;20416;-49
2021/10/02 13:32:32;;;;;;;1.60;1.50;;;;;;;;;;5031499;28;20406;-48
2021/10/02 13:35:01;;;;;;;1.80;1.70;;;;;;;;;;5031972;28;20379;-49
2021/10/02 13:37:27;;;;;;;1.80;1.70;;;;;;;;;;5029415;28;20430;-50
2021/10/02 13:39:54;;;;;;;2.40;2.23;;;;;;;;;;5031820;28;20431;-48
2021/10/02 13:42:21;;;;;;;1.93;1.83;;;;;;;;;;5031380;28;20380;-49
2021/10/02 13:44:54;;;;;;;1.90;1.80;;;;;;;;;;5031722;28;20375;-48
2021/10/02 13:47:21;;;;;;;2.10;1.90;;;;;;;;;;5032115;28;20408;-48
2021/10/02 13:49:47;;;;;;;1.53;1.43;;;;;;;;;;5031818;28;20376;-49
2021/10/02 13:52:13;;;;;;;2.23;2.03;;;;;;;;;;5031452;28;20869;-49
2021/10/02 13:54:39;;;;;;;3.27;1.50;;;;;;;;;;5031311;28;20410;-49
2021/10/02 13:57:08;;;;;;;2.60;1.70;;;;;;;;;;5031818;28;20855;-49
2021/10/02 13:59:34;;;;;;;1.77;1.67;;;;;;;;;;5031486;28;20419;-50
2021/10/02 14:02:00;;;;;;;8.83;1.67;;;;;;;;;;5029587;28;20971;-47
2021/10/02 14:04:26;;;;;;;2.17;1.97;;;;;;;;;;5031619;28;20487;-44
2021/10/02 14:06:52;;;;;;;2.27;1.50;;;;;;;;;;5031690;28;20376;-44
2021/10/02 14:09:18;;;;;;;1.70;1.60;;;;;;;;;;5031504;28;20381;-43
2021/10/02 14:11:44;;;;;;;2.50;1.63;;;;;;;;;;5030491;28;20403;-44
2021/10/02 14:14:10;;;;;;;1.63;1.53;;;;;;;;;;5031520;28;20439;-44
2021/10/02 14:16:36;;;;;;;1.73;1.63;;;;;;;;;;5034591;28;20487;-43
2021/10/02 14:19:02;;;;;;;2.03;1.70;;;;;;;;;;5035524;28;20420;-44
2021/10/02 14:21:28;;;;;;;8.43;1.83;;;;;;;;;;5035172;28;20442;-44
2021/10/02 14:23:54;;;;;;;3.47;1.70;;;;;;;;;;5035125;28;20832;-44
2021/10/02 14:26:20;;;;;;;1.90;1.77;;;;;;;;;;5034280;28;20438;-45
2021/10/02 14:28:46;;;;;;;1.70;1.60;;;;;;;;;;5033841;28;21002;-47
2021/10/02 14:31:12;;;;;;;2.50;2.00;;;;;;;;;;5034715;28;20436;-47
2021/10/02 14:33:38;;;;;;;2.03;1.70;;;;;;;;;;5034898;28;21115;-44
2021/10/02 14:36:04;;;;;;;2.17;1.77;;;;;;;;;;5035115;28;20819;-43
2021/10/02 14:38:32;;;;;;;1.83;1.73;;;;;;;;;;5034337;28;20540;-45
2021/10/02 14:40:58;;;;;;;1.70;1.60;;;;;;;;;;5034889;28;20462;-44
2021/10/02 14:43:27;;;;;;;2.70;1.93;;;;;;;;;;5034714;28;20816;-44
2021/10/02 14:45:54;;;;;;;1.80;1.70;;;;;;;;;;5034919;28;20375;-47
2021/10/02 14:48:20;;;;;;;2.13;1.70;;;;;;;;;;5017499;28;20801;-45
2021/10/02 14:50:46;;;;;;;2.20;2.10;;;;;;;;;;5014960;28;20409;-45
2021/10/02 14:53:15;;;;;;;4.13;1.83;;;;;;;;;;5014591;28;20457;-45
2021/10/02 14:55:44;;;;;;;1.93;1.67;;;;;;;;;;5014990;28;20795;-44
2021/10/02 14:58:10;;;;;;;2.17;1.93;;;;;;;;;;5014897;28;20401;-43
2021/10/02 15:00:36;;;;;;;4.30;1.80;;;;;;;;;;5014814;28;20430;-43
2021/10/02 15:03:06;;;;;;;6.57;1.73;;;;;;;;;;5014532;28;20433;-43
2021/10/02 15:05:32;;;;;;;2.17;1.37;;;;;;;;;;5014753;28;20757;-44
2021/10/02 15:07:59;;;;;;;3.30;1.60;;;;;;;;;;5014833;28;20384;-43
2021/10/02 15:10:25;;;;;;;2.23;2.03;;;;;;;;;;5014703;28;20390;-44
2021/10/02 15:12:51;;;;;;;1.83;1.73;;;;;;;;;;5015571;28;20475;-44
2021/10/02 15:15:17;;;;;;;2.33;2.03;;;;;;;;;;5014478;28;20431;-46
2021/10/02 15:17:43;;;;;;;1.63;1.53;;;;;;;;;;5014474;28;20377;-48
2021/10/02 15:20:10;;;;;;;3.33;1.63;;;;;;;;;;5014327;28;20951;-45
2021/10/02 15:22:38;;;;;;;2.10;1.83;;;;;;;;;;5014075;28;20375;-43
2021/10/02 15:25:05;;;;;;;1.53;1.43;;;;;;;;;;5014463;28;20409;-46
2021/10/02 15:27:33;;;;;;;1.70;1.60;;;;;;;;;;5013712;28;20493;-43
2021/10/02 15:29:59;;;;;;;2.43;1.70;;;;;;;;;;5014384;28;20419;-44
2021/10/02 15:32:26;;;;;;;1.77;1.67;;;;;;;;;;5013886;28;20400;-43
2021/10/02 15:34:53;;;;;;;1.80;1.43;;;;;;;;;;5014371;28;20413;-47
2021/10/02 15:37:19;;;;;;;1.90;1.73;;;;;;;;;;5014363;28;20409;-46